Time;durP1;ratioP1;P1;durP2;ratioP2;P2;SDS_P1;SDS_P2;PMS_P1;PMS_P2;Temp;Humidity;BMP_temperature;BMP_pressure;BME280_temperature;BME280_humidity;BME280_pressure;Samples;Min_cycle;Max_cycle;Signal;HPM_P1;HPM_P2
2022/03/25 00:01:57;;;;;;;30.95;22.92;;;3.80;99.90;;;;;;4929750;28;20056;-54
2022/03/25 00:04:23;;;;;;;30.90;23.05;;;3.90;99.90;;;;;;4927785;28;20035;-53
2022/03/25 00:06:49;;;;;;;33.10;23.33;;;3.90;99.90;;;;;;4928608;29;20083;-52
2022/03/25 00:09:14;;;;;;;34.55;23.92;;;3.90;99.90;;;;;;4934462;29;20043;-52
2022/03/25 00:11:40;;;;;;;33.20;23.50;;;3.90;99.90;;;;;;4929389;29;20035;-54
2022/03/25 00:14:06;;;;;;;30.23;21.88;;;3.90;99.90;;;;;;4931037;28;20051;-49
2022/03/25 00:16:33;;;;;;;31.67;22.65;;;3.90;99.90;;;;;;4939271;28;20062;-50
2022/03/25 00:18:59;;;;;;;27.88;20.38;;;3.80;99.90;;;;;;4929256;29;20133;-54
2022/03/25 00:21:25;;;;;;;23.23;18.88;;;3.90;99.90;;;;;;4930209;28;20221;-52
2022/03/25 00:23:51;;;;;;;21.42;18.00;;;3.80;99.90;;;;;;4936498;29;20066;-52
2022/03/25 00:26:17;;;;;;;21.75;17.38;;;3.80;99.90;;;;;;4932878;28;20056;-54
2022/03/25 00:28:43;;;;;;;22.52;17.98;;;3.80;99.90;;;;;;4931274;28;20779;-55
2022/03/25 00:31:08;;;;;;;24.05;18.58;;;3.70;99.90;;;;;;4932056;29;20047;-52
2022/03/25 00:33:39;;;;;;;22.77;17.63;;;3.70;99.90;;;;;;4934133;29;22906;-49
2022/03/25 00:36:05;;;;;;;22.70;17.95;;;3.70;99.90;;;;;;4929327;29;20050;-54
2022/03/25 00:38:31;;;;;;;22.63;18.38;;;3.60;99.90;;;;;;4929623;28;20558;-51
2022/03/25 00:40:57;;;;;;;21.95;18.00;;;3.60;99.90;;;;;;4932638;29;20111;-52
2022/03/25 00:43:24;;;;;;;21.10;16.25;;;3.50;99.90;;;;;;4934951;29;20043;-52
2022/03/25 00:45:51;;;;;;;18.33;15.80;;;3.40;99.90;;;;;;4927981;28;20051;-52
2022/03/25 00:48:17;;;;;;;18.67;15.73;;;3.40;99.90;;;;;;4931201;28;22026;-51
2022/03/25 00:50:43;;;;;;;19.52;15.77;;;3.40;99.90;;;;;;4931791;28;20039;-53
2022/03/25 00:53:10;;;;;;;19.15;16.02;;;3.40;99.90;;;;;;4930772;28;20426;-53
2022/03/25 00:55:37;;;;;;;23.13;17.77;;;3.40;99.90;;;;;;4929534;29;20051;-54
2022/03/25 00:58:03;;;;;;;20.02;16.67;;;3.30;99.90;;;;;;4930163;29;20106;-55
2022/03/25 01:00:29;;;;;;;22.13;17.73;;;3.30;99.90;;;;;;4930747;29;21225;-51
2022/03/25 01:02:55;;;;;;;36.92;25.15;;;3.30;99.90;;;;;;4931622;29;20101;-52
2022/03/25 01:05:21;;;;;;;33.15;23.65;;;3.30;99.90;;;;;;4927708;28;20047;-55
2022/03/25 01:07:47;;;;;;;34.55;23.17;;;3.30;99.90;;;;;;4929360;28;20079;-50
2022/03/25 01:10:13;;;;;;;30.10;21.85;;;3.30;99.90;;;;;;4927985;29;20150;-51
2022/03/25 01:12:39;;;;;;;26.15;19.83;;;3.30;99.90;;;;;;4930366;28;20054;-53
2022/03/25 01:15:05;;;;;;;26.33;20.17;;;3.20;99.90;;;;;;4927647;28;20044;-53
2022/03/25 01:17:31;;;;;;;26.65;19.00;;;3.20;99.90;;;;;;4933217;29;20051;-53
2022/03/25 01:19:57;;;;;;;23.92;19.08;;;3.20;99.90;;;;;;4929011;29;20525;-49
2022/03/25 01:22:23;;;;;;;24.30;19.50;;;3.20;99.90;;;;;;4929902;29;20086;-55
2022/03/25 01:24:49;;;;;;;25.40;20.00;;;3.20;99.90;;;;;;4927901;29;20060;-52
2022/03/25 01:27:15;;;;;;;24.05;18.83;;;3.10;99.90;;;;;;4927387;29;20079;-53
2022/03/25 01:29:41;;;;;;;21.98;18.05;;;3.10;99.90;;;;;;4928156;29;20047;-53
2022/03/25 01:32:08;;;;;;;19.52;16.90;;;3.00;99.90;;;;;;4929322;28;20134;-52
2022/03/25 01:34:35;;;;;;;18.77;15.98;;;3.00;99.90;;;;;;4929759;28;20109;-52
2022/03/25 01:37:01;;;;;;;18.95;16.33;;;2.90;99.90;;;;;;4930654;28;20075;-53
2022/03/25 01:39:27;;;;;;;20.60;16.65;;;2.90;99.90;;;;;;4929633;28;20043;-51
2022/03/25 01:41:55;;;;;;;19.33;16.73;;;2.80;99.90;;;;;;4927813;29;20146;-53
2022/03/25 01:44:31;;;;;;;20.88;16.88;;;2.80;99.90;;;;;;4928579;28;20044;-52
2022/03/25 01:46:59;;;;;;;26.45;19.23;;;2.70;99.90;;;;;;4926875;28;20086;-52
2022/03/25 01:49:26;;;;;;;22.58;18.10;;;2.60;99.90;;;;;;4929287;28;20119;-52
2022/03/25 01:51:55;;;;;;;21.05;17.77;;;2.60;99.90;;;;;;4927969;29;20082;-54
2022/03/25 01:54:26;;;;;;;20.95;17.05;;;2.50;99.90;;;;;;4926805;29;20051;-52
2022/03/25 01:57:00;;;;;;;17.20;15.13;;;2.50;99.90;;;;;;4927689;29;20043;-51
2022/03/25 01:59:27;;;;;;;19.00;16.40;;;2.50;99.90;;;;;;4931385;28;20043;-53
2022/03/25 02:01:56;;;;;;;21.88;17.85;;;2.40;99.90;;;;;;4928187;29;20074;-55
2022/03/25 02:04:23;;;;;;;23.40;18.52;;;2.40;99.90;;;;;;4924000;28;20141;-52
2022/03/25 02:06:49;;;;;;;21.38;16.80;;;2.30;99.90;;;;;;4924088;28;20462;-53
2022/03/25 02:09:15;;;;;;;22.80;17.33;;;2.30;99.90;;;;;;4929171;29;20173;-52
2022/03/25 02:11:42;;;;;;;23.67;18.40;;;2.40;99.90;;;;;;4925856;28;20058;-53
2022/03/25 02:14:09;;;;;;;19.38;15.73;;;2.30;99.90;;;;;;4927722;28;20047;-53
2022/03/25 02:16:40;;;;;;;15.57;13.75;;;2.30;99.90;;;;;;4927577;29;20099;-50
2022/03/25 02:19:08;;;;;;;22.77;14.02;;;2.20;99.90;;;;;;4929411;28;20055;-53
2022/03/25 02:21:37;;;;;;;18.00;14.48;;;2.20;99.90;;;;;;4928726;28;20055;-55
2022/03/25 02:24:03;;;;;;;18.10;15.75;;;2.10;99.90;;;;;;4930458;29;20552;-54
2022/03/25 02:26:29;;;;;;;19.73;17.13;;;2.00;99.90;;;;;;4924915;29;21510;-53
2022/03/25 02:28:56;;;;;;;19.25;15.20;;;2.00;99.90;;;;;;4930171;29;20050;-52
2022/03/25 02:31:22;;;;;;;19.08;15.90;;;2.00;99.90;;;;;;4927634;28;20046;-54
2022/03/25 02:33:48;;;;;;;24.45;19.13;;;1.90;99.90;;;;;;4928936;28;20043;-53
2022/03/25 02:36:14;;;;;;;166.85;22.13;;;1.90;99.90;;;;;;4935232;29;20114;-51
2022/03/25 02:38:40;;;;;;;25.50;20.02;;;1.90;99.90;;;;;;4933291;28;20055;-51
2022/03/25 02:41:06;;;;;;;26.85;20.52;;;1.70;99.90;;;;;;4915048;29;20143;-54
2022/03/25 02:43:32;;;;;;;35.85;20.25;;;1.70;99.90;;;;;;4916660;29;20051;-53
2022/03/25 02:45:58;;;;;;;166.18;23.30;;;1.60;99.90;;;;;;4926629;28;20047;-52
2022/03/25 02:48:24;;;;;;;25.95;19.73;;;1.50;99.90;;;;;;4930319;28;20051;-52
2022/03/25 02:50:49;;;;;;;26.50;19.92;;;1.40;99.90;;;;;;4930098;28;20054;-53
2022/03/25 02:53:15;;;;;;;24.88;20.17;;;1.40;99.90;;;;;;4931626;29;20043;-52
2022/03/25 02:55:42;;;;;;;54.10;24.25;;;1.40;99.90;;;;;;4934147;28;20109;-50
2022/03/25 02:58:08;;;;;;;27.00;20.58;;;1.30;99.90;;;;;;4939061;29;20047;-52
2022/03/25 03:00:35;;;;;;;27.63;20.98;;;1.30;99.90;;;;;;4932553;29;20126;-52
2022/03/25 03:03:01;;;;;;;31.33;22.20;;;1.20;99.90;;;;;;4931148;29;20054;-51
2022/03/25 03:05:31;;;;;;;27.13;21.23;;;1.30;99.90;;;;;;4932049;29;20125;-52
2022/03/25 03:07:58;;;;;;;30.17;21.88;;;1.30;99.90;;;;;;4931610;28;20051;-55
2022/03/25 03:10:24;;;;;;;29.10;21.35;;;1.30;99.90;;;;;;4932368;29;20494;-53
2022/03/25 03:12:52;;;;;;;30.02;22.33;;;1.30;99.90;;;;;;4930158;29;20077;-51
2022/03/25 03:15:18;;;;;;;32.45;23.42;;;1.30;99.90;;;;;;4929694;28;20048;-53
2022/03/25 03:17:46;;;;;;;34.53;25.10;;;1.30;99.90;;;;;;4931955;28;20055;-53
2022/03/25 03:20:14;;;;;;;31.23;23.35;;;1.30;99.90;;;;;;4931220;29;20047;-49
2022/03/25 03:22:41;;;;;;;29.25;21.98;;;1.30;99.90;;;;;;4915108;29;20050;-52
2022/03/25 03:25:07;;;;;;;33.15;24.40;;;1.20;99.90;;;;;;4928634;28;20744;-52
2022/03/25 03:27:33;;;;;;;30.58;22.77;;;1.30;99.90;;;;;;4931061;28;20051;-52
2022/03/25 03:29:59;;;;;;;39.58;23.15;;;1.30;99.90;;;;;;4930765;28;20055;-53
2022/03/25 03:32:26;;;;;;;32.90;23.13;;;1.20;99.90;;;;;;4931468;29;20106;-50
2022/03/25 03:34:53;;;;;;;32.70;23.77;;;1.20;99.90;;;;;;4928899;29;20094;-50
2022/03/25 03:37:20;;;;;;;30.95;23.20;;;1.20;99.90;;;;;;4931355;28;20043;-53
2022/03/25 03:39:47;;;;;;;31.05;22.88;;;1.20;99.90;;;;;;4928489;28;20114;-53
2022/03/25 03:42:12;;;;;;;31.67;22.50;;;1.30;99.90;;;;;;4931409;28;20121;-53
2022/03/25 03:44:40;;;;;;;80.05;26.27;;;1.20;99.90;;;;;;4929991;28;20047;-54
2022/03/25 03:47:06;;;;;;;28.65;21.48;;;1.20;99.90;;;;;;4922833;29;20067;-53
2022/03/25 03:49:33;;;;;;;28.95;21.65;;;1.20;99.90;;;;;;4931457;28;20058;-50
2022/03/25 03:51:59;;;;;;;25.20;20.77;;;1.10;99.90;;;;;;4934056;29;20180;-51
2022/03/25 03:54:25;;;;;;;27.25;20.80;;;1.20;99.90;;;;;;4930598;29;20057;-54
2022/03/25 03:56:51;;;;;;;27.75;21.42;;;1.10;99.90;;;;;;4929932;28;20101;-51
2022/03/25 03:59:17;;;;;;;25.63;20.10;;;1.10;99.90;;;;;;4932970;28;20055;-53
2022/03/25 04:01:42;;;;;;;25.27;20.20;;;1.00;99.90;;;;;;4929392;28;20055;-52
2022/03/25 04:04:08;;;;;;;23.65;19.23;;;1.00;99.90;;;;;;4932742;29;20035;-52
2022/03/25 04:06:34;;;;;;;27.42;21.33;;;0.90;99.90;;;;;;4929991;29;20054;-48
2022/03/25 04:09:00;;;;;;;27.88;21.55;;;0.90;99.90;;;;;;4928757;29;20079;-51
2022/03/25 04:11:25;;;;;;;25.88;20.40;;;0.90;99.90;;;;;;4929060;29;20850;-53
2022/03/25 04:13:52;;;;;;;29.40;21.77;;;0.90;99.90;;;;;;4931085;28;21583;-49
2022/03/25 04:16:17;;;;;;;27.33;21.30;;;0.90;99.90;;;;;;4928866;29;20043;-51
2022/03/25 04:18:44;;;;;;;28.80;21.73;;;0.90;99.90;;;;;;4929332;29;20141;-53
2022/03/25 04:21:10;;;;;;;29.50;21.60;;;0.90;99.90;;;;;;4931525;29;20055;-50
2022/03/25 04:23:36;;;;;;;24.83;19.88;;;0.80;99.90;;;;;;4935435;28;20054;-50
2022/03/25 04:26:02;;;;;;;32.15;19.52;;;0.70;99.90;;;;;;4928853;28;20078;-51
2022/03/25 04:28:28;;;;;;;25.02;19.25;;;0.70;99.90;;;;;;4927246;29;20048;-51
2022/03/25 04:30:54;;;;;;;24.73;18.88;;;0.70;99.90;;;;;;4929348;28;20047;-52
2022/03/25 04:33:20;;;;;;;25.45;19.83;;;0.70;99.90;;;;;;4930916;29;20046;-52
2022/03/25 04:35:46;;;;;;;24.77;18.83;;;0.70;99.90;;;;;;4930058;28;20146;-51
2022/03/25 04:38:12;;;;;;;25.73;19.75;;;0.70;99.90;;;;;;4932798;28;20047;-51
2022/03/25 04:40:38;;;;;;;24.65;19.23;;;0.70;99.90;;;;;;4930608;28;20120;-53
2022/03/25 04:43:04;;;;;;;27.33;20.17;;;0.70;99.90;;;;;;4929896;28;20055;-51
2022/03/25 04:45:31;;;;;;;26.15;19.60;;;0.70;99.90;;;;;;4929257;29;20047;-53
2022/03/25 04:47:58;;;;;;;25.38;19.08;;;0.80;99.90;;;;;;4927674;28;20040;-52
2022/03/25 04:50:24;;;;;;;24.98;18.83;;;0.70;99.90;;;;;;4928971;28;20067;-53
2022/03/25 04:52:50;;;;;;;24.70;18.50;;;0.90;99.90;;;;;;4924234;28;20150;-54
2022/03/25 04:55:17;;;;;;;26.20;19.67;;;0.80;99.90;;;;;;4929852;28;20050;-51
2022/03/25 04:57:44;;;;;;;23.85;18.25;;;0.80;99.90;;;;;;4929165;28;20035;-51
2022/03/25 05:00:11;;;;;;;24.20;18.15;;;0.80;99.90;;;;;;4930641;28;20498;-52
2022/03/25 05:02:37;;;;;;;26.35;19.52;;;0.80;99.90;;;;;;4924736;28;20438;-51
2022/03/25 05:05:03;;;;;;;24.58;19.33;;;0.80;99.90;;;;;;4929643;28;20047;-52
2022/03/25 05:07:30;;;;;;;25.25;18.70;;;0.70;99.90;;;;;;4926719;29;20479;-52
2022/03/25 05:10:00;;;;;;;21.23;17.05;;;0.70;99.90;;;;;;4927755;29;20106;-53
2022/03/25 05:12:26;;;;;;;23.25;18.23;;;0.70;99.90;;;;;;4929319;28;20121;-53
2022/03/25 05:14:53;;;;;;;21.98;17.40;;;0.70;99.90;;;;;;4928363;29;20069;-51
2022/03/25 05:17:19;;;;;;;22.17;17.23;;;0.70;99.90;;;;;;4928059;29;20054;-52
2022/03/25 05:19:45;;;;;;;23.85;18.38;;;0.70;99.90;;;;;;4928743;29;20134;-51
2022/03/25 05:22:11;;;;;;;24.75;19.73;;;0.70;99.90;;;;;;4928978;29;20909;-55
2022/03/25 05:24:37;;;;;;;21.85;17.17;;;0.60;99.90;;;;;;4928743;28;20050;-50
2022/03/25 05:27:04;;;;;;;20.25;16.48;;;0.60;99.90;;;;;;4930567;28;20094;-52
2022/03/25 05:29:30;;;;;;;22.83;16.80;;;0.60;99.90;;;;;;4926196;28;20789;-53
2022/03/25 05:31:56;;;;;;;27.88;18.55;;;0.60;99.90;;;;;;4928126;28;20087;-54
2022/03/25 05:34:22;;;;;;;44.85;20.50;;;0.60;99.90;;;;;;4928093;29;20051;-51
2022/03/25 05:36:47;;;;;;;26.65;19.73;;;0.60;99.90;;;;;;4925510;28;20095;-51
2022/03/25 05:39:15;;;;;;;27.48;19.83;;;0.60;99.90;;;;;;4929112;28;20134;-50
2022/03/25 05:41:42;;;;;;;28.50;19.60;;;0.70;99.90;;;;;;4928939;28;20170;-53
2022/03/25 05:44:08;;;;;;;27.33;19.42;;;0.70;99.90;;;;;;4929631;28;20082;-51
2022/03/25 05:46:34;;;;;;;27.48;19.52;;;0.70;99.90;;;;;;4932539;28;20047;-50
2022/03/25 05:49:01;;;;;;;25.05;18.10;;;0.70;99.90;;;;;;4928695;28;20051;-48
2022/03/25 05:51:27;;;;;;;30.50;17.60;;;0.70;99.90;;;;;;4929710;29;20054;-52
2022/03/25 05:53:53;;;;;;;34.70;18.55;;;0.70;99.90;;;;;;4930952;28;20047;-49
2022/03/25 05:56:20;;;;;;;28.20;20.35;;;0.70;99.90;;;;;;4932834;28;20042;-52
2022/03/25 05:58:45;;;;;;;28.23;20.02;;;0.70;99.90;;;;;;4929646;28;20628;-53
2022/03/25 06:01:13;;;;;;;29.33;19.98;;;0.70;99.90;;;;;;4929720;29;20097;-53
2022/03/25 06:03:39;;;;;;;27.27;19.65;;;0.80;99.90;;;;;;4918005;29;20067;-47
2022/03/25 06:06:05;;;;;;;26.05;19.17;;;0.80;99.90;;;;;;4927290;28;20125;-51
2022/03/25 06:08:31;;;;;;;29.08;19.92;;;0.80;99.90;;;;;;4929012;29;20793;-53
2022/03/25 06:10:59;;;;;;;31.85;21.83;;;0.90;99.90;;;;;;4928373;29;21126;-53
2022/03/25 06:13:26;;;;;;;35.00;22.63;;;0.90;99.90;;;;;;4929742;28;20043;-52
2022/03/25 06:15:53;;;;;;;31.88;22.35;;;1.00;99.90;;;;;;4925327;28;20051;-52
2022/03/25 06:18:19;;;;;;;29.50;21.30;;;1.00;99.90;;;;;;4928254;29;20061;-52
2022/03/25 06:20:45;;;;;;;34.38;23.48;;;1.00;99.90;;;;;;4927199;28;20051;-52
2022/03/25 06:23:10;;;;;;;31.90;22.33;;;1.00;99.90;;;;;;4932835;28;20067;-48
2022/03/25 06:25:36;;;;;;;30.85;21.63;;;1.10;99.90;;;;;;4924454;28;20047;-52
2022/03/25 06:28:07;;;;;;;32.60;22.10;;;1.10;99.90;;;;;;4929759;28;20043;-52
2022/03/25 06:30:35;;;;;;;53.35;30.33;;;1.20;99.90;;;;;;4927150;29;20398;-51
2022/03/25 06:33:03;;;;;;;45.65;28.17;;;1.20;99.90;;;;;;4931233;28;20089;-54
2022/03/25 06:35:29;;;;;;;45.08;27.15;;;1.20;99.90;;;;;;4928797;28;20055;-51
2022/03/25 06:37:56;;;;;;;44.08;27.05;;;1.30;99.90;;;;;;4930315;28;20086;-50
2022/03/25 06:40:23;;;;;;;54.17;31.08;;;1.30;99.90;;;;;;4926173;28;20123;-51
2022/03/25 06:42:50;;;;;;;47.30;28.35;;;1.40;99.90;;;;;;4927391;28;23077;-55
2022/03/25 06:45:17;;;;;;;40.85;26.23;;;1.40;99.90;;;;;;4927544;29;20058;-51
2022/03/25 06:47:43;;;;;;;45.85;27.35;;;1.50;99.90;;;;;;4929763;29;20154;-53
2022/03/25 06:50:11;;;;;;;44.45;28.40;;;1.50;99.90;;;;;;4930351;28;20044;-51
2022/03/25 06:52:37;;;;;;;41.53;27.05;;;1.60;99.90;;;;;;4931020;28;20405;-53
2022/03/25 06:55:03;;;;;;;45.65;26.80;;;1.60;99.90;;;;;;4928700;29;20569;-53
2022/03/25 06:57:30;;;;;;;42.05;26.67;;;1.70;99.90;;;;;;4934912;29;20514;-54
2022/03/25 06:59:56;;;;;;;42.00;26.77;;;1.70;99.90;;;;;;4933505;28;20059;-56
2022/03/25 07:02:22;;;;;;;42.58;26.95;;;1.80;99.90;;;;;;4929204;28;20055;-56
2022/03/25 07:04:48;;;;;;;45.30;27.00;;;1.80;99.90;;;;;;4927315;28;20054;-57
2022/03/25 07:07:21;;;;;;;42.50;27.30;;;1.80;99.90;;;;;;4925259;28;20881;-56
2022/03/25 07:09:47;;;;;;;47.83;29.30;;;1.90;99.90;;;;;;4928954;28;20471;-57
2022/03/25 07:12:16;;;;;;;52.40;30.25;;;2.00;99.90;;;;;;4927401;29;20047;-57
2022/03/25 07:14:42;;;;;;;54.22;32.65;;;2.00;99.90;;;;;;4926681;28;20043;-58
2022/03/25 07:17:08;;;;;;;62.92;34.88;;;2.10;99.90;;;;;;4928656;29;20106;-58
2022/03/25 07:19:33;;;;;;;60.25;34.95;;;2.20;99.90;;;;;;4931342;29;20093;-60
2022/03/25 07:21:59;;;;;;;71.07;38.78;;;2.30;99.90;;;;;;4935436;29;20073;-58
2022/03/25 07:24:25;;;;;;;71.18;37.35;;;2.40;99.90;;;;;;4932510;29;20058;-59
2022/03/25 07:26:51;;;;;;;73.40;38.95;;;2.50;99.90;;;;;;4930479;28;20609;-50
2022/03/25 07:29:17;;;;;;;83.32;41.67;;;2.60;99.90;;;;;;4936406;28;21109;-50
2022/03/25 07:31:43;;;;;;;87.10;43.15;;;2.80;99.90;;;;;;4929739;28;20027;-50
2022/03/25 07:34:09;;;;;;;80.47;42.20;;;3.00;99.90;;;;;;4928484;29;20047;-49
2022/03/25 07:36:35;;;;;;;84.00;43.28;;;3.10;99.90;;;;;;4930371;28;20094;-51
2022/03/25 07:39:02;;;;;;;74.82;40.10;;;3.30;99.90;;;;;;4932709;28;20086;-50
2022/03/25 07:41:29;;;;;;;70.55;38.40;;;3.50;99.90;;;;;;4932625;28;20051;-50
2022/03/25 07:43:55;;;;;;;74.50;39.03;;;3.80;99.90;;;;;;4929464;29;20042;-50
2022/03/25 07:46:23;;;;;;;69.75;38.28;;;3.90;99.90;;;;;;4928885;29;20056;-51
2022/03/25 07:48:50;;;;;;;68.15;37.35;;;4.20;99.90;;;;;;4931058;29;20047;-49
2022/03/25 07:51:15;;;;;;;68.93;38.05;;;4.30;99.90;;;;;;4929571;29;20047;-50
2022/03/25 07:53:41;;;;;;;74.25;37.17;;;4.60;99.90;;;;;;4929606;28;20098;-52
2022/03/25 07:56:07;;;;;;;67.03;37.25;;;4.80;99.90;;;;;;4931504;29;20502;-51
2022/03/25 07:58:33;;;;;;;64.00;35.78;;;5.10;99.90;;;;;;4929078;29;20071;-52
2022/03/25 08:00:59;;;;;;;59.60;34.40;;;5.30;99.90;;;;;;4935667;28;20522;-49
2022/03/25 08:03:24;;;;;;;52.75;32.10;;;5.50;99.90;;;;;;4933657;29;20047;-50
2022/03/25 08:05:51;;;;;;;53.70;30.42;;;5.70;99.90;;;;;;4929520;28;20043;-51
2022/03/25 08:08:21;;;;;;;44.38;27.25;;;6.00;99.90;;;;;;4931359;29;20098;-53
2022/03/25 08:10:47;;;;;;;45.13;26.23;;;6.20;99.90;;;;;;4931726;28;20086;-49
2022/03/25 08:13:15;;;;;;;42.17;25.05;;;6.50;99.90;;;;;;4933080;29;21352;-49
2022/03/25 08:15:41;;;;;;;43.15;25.40;;;6.60;99.90;;;;;;4931355;29;20585;-51
2022/03/25 08:18:10;;;;;;;40.90;25.33;;;6.80;99.90;;;;;;4931027;29;20059;-51
2022/03/25 08:20:41;;;;;;;40.70;23.92;;;6.90;99.90;;;;;;4931495;29;20054;-49
2022/03/25 08:28:50;;;;;;;43.00;24.80;;;7.30;99.90;;;;;;4921741;29;22615;-50
2022/03/25 08:31:16;;;;;;;45.22;26.30;;;7.40;99.90;;;;;;4929578;29;20206;-50
2022/03/25 08:33:43;;;;;;;47.35;26.13;;;7.50;99.90;;;;;;4929568;29;20048;-52
2022/03/25 08:36:09;;;;;;;45.65;25.88;;;7.70;99.90;;;;;;4932373;28;20129;-52
2022/03/25 08:38:35;;;;;;;45.38;25.80;;;7.90;99.90;;;;;;4905286;29;20055;-47
2022/03/25 08:41:01;;;;;;;42.47;26.42;;;8.00;99.90;;;;;;4916765;29;20043;-52
2022/03/25 08:43:27;;;;;;;46.10;25.15;;;8.30;99.90;;;;;;4932971;28;20418;-50
2022/03/25 08:45:53;;;;;;;41.30;25.10;;;8.40;99.90;;;;;;4931942;29;20491;-52
2022/03/25 08:48:19;;;;;;;42.67;25.40;;;8.60;99.90;;;;;;4931012;28;20486;-52
2022/03/25 08:50:45;;;;;;;47.42;26.63;;;8.70;99.90;;;;;;4927899;29;20097;-52
2022/03/25 08:53:11;;;;;;;42.47;25.40;;;8.90;99.90;;;;;;4930309;28;21244;-51
2022/03/25 08:55:36;;;;;;;39.53;25.60;;;9.00;99.90;;;;;;4928880;28;20093;-53
2022/03/25 08:58:03;;;;;;;42.38;24.27;;;9.20;99.90;;;;;;4929270;28;20055;-48
2022/03/25 09:00:29;;;;;;;40.55;24.67;;;9.30;99.90;;;;;;4930369;28;20158;-49
2022/03/25 09:02:55;;;;;;;39.35;24.85;;;9.50;99.90;;;;;;4929174;29;20044;-48
2022/03/25 09:05:21;;;;;;;40.63;24.27;;;9.60;99.90;;;;;;4927757;29;20054;-50
2022/03/25 09:07:47;;;;;;;37.88;22.63;;;9.80;99.90;;;;;;4929891;28;20211;-47
2022/03/25 09:10:14;;;;;;;38.22;23.48;;;9.90;99.90;;;;;;4927933;29;21809;-52
2022/03/25 09:12:41;;;;;;;38.45;22.80;;;10.10;99.90;;;;;;4930300;28;20058;-53
2022/03/25 09:15:08;;;;;;;41.33;23.80;;;10.30;99.90;;;;;;4929789;28;20498;-51
2022/03/25 09:17:34;;;;;;;40.63;23.02;;;10.40;99.90;;;;;;4930094;28;20499;-48
2022/03/25 09:20:03;;;;;;;34.60;21.00;;;10.50;99.90;;;;;;4927482;29;20413;-50
2022/03/25 09:22:31;;;;;;;44.00;22.02;;;10.70;99.90;;;;;;4930362;28;20054;-51
2022/03/25 09:24:57;;;;;;;35.75;22.45;;;10.80;99.40;;;;;;4929353;29;21054;-47
2022/03/25 09:27:23;;;;;;;36.25;21.25;;;10.90;99.30;;;;;;4931654;28;20052;-49
2022/03/25 09:29:50;;;;;;;34.80;20.90;;;11.20;98.60;;;;;;4927778;29;20043;-48
2022/03/25 09:32:16;;;;;;;37.60;22.02;;;11.30;97.70;;;;;;4929071;29;20047;-48
2022/03/25 09:37:26;;;;;;;36.50;20.52;;;11.60;96.10;;;;;;4928440;29;20738;-49
2022/03/25 09:39:52;;;;;;;34.72;19.35;;;11.70;95.20;;;;;;4929574;29;20051;-51
2022/03/25 09:42:19;;;;;;;36.42;19.50;;;11.90;94.10;;;;;;4931956;29;20074;-51
2022/03/25 09:44:46;;;;;;;36.35;19.25;;;11.90;93.20;;;;;;4928120;29;20204;-51
2022/03/25 09:47:14;;;;;;;34.53;18.88;;;12.00;91.60;;;;;;4928050;28;20062;-48
2022/03/25 09:49:40;;;;;;;33.72;18.40;;;12.10;91.00;;;;;;4928205;28;20054;-49
2022/03/25 09:52:07;;;;;;;31.95;18.55;;;12.30;90.20;;;;;;4925523;29;20066;-51
2022/03/25 09:54:34;;;;;;;35.30;19.67;;;12.30;88.70;;;;;;4930284;29;20047;-50
2022/03/25 09:57:01;;;;;;;31.75;18.73;;;12.40;87.40;;;;;;4926776;29;20047;-51
2022/03/25 09:59:27;;;;;;;32.78;19.00;;;12.60;86.90;;;;;;4927055;28;20070;-49
2022/03/25 10:01:53;;;;;;;31.83;19.05;;;12.60;84.90;;;;;;4925984;28;20384;-52
2022/03/25 10:04:37;;;;;;;32.90;19.00;;;12.80;84.10;;;;;;4928387;28;22408;-49
2022/03/25 10:07:23;;;;;;;34.45;18.38;;;12.90;81.60;;;;;;4928396;29;20047;-48
2022/03/25 10:10:13;;;;;;;32.97;18.98;;;13.10;82.60;;;;;;4929202;28;20075;-50
2022/03/25 10:12:42;;;;;;;29.95;17.98;;;13.30;83.40;;;;;;4930837;29;20118;-51
2022/03/25 10:15:19;;;;;;;28.15;17.65;;;13.50;82.50;;;;;;4931902;29;20047;-49
2022/03/25 10:17:58;;;;;;;30.35;18.05;;;13.70;80.00;;;;;;4928993;29;20050;-50
2022/03/25 10:20:32;;;;;;;35.17;20.17;;;13.80;78.80;;;;;;4929319;28;20138;-47
2022/03/25 10:23:13;;;;;;;35.85;19.90;;;13.90;78.00;;;;;;4929738;28;20050;-51
2022/03/25 10:25:43;;;;;;;35.40;19.85;;;14.10;77.60;;;;;;4928836;28;21235;-50
2022/03/25 10:28:31;;;;;;;37.33;20.45;;;14.30;76.30;;;;;;4928668;29;20051;-48
2022/03/25 10:30:58;;;;;;;33.38;19.60;;;14.30;74.20;;;;;;4928287;29;20098;-52
2022/03/25 10:33:36;;;;;;;32.97;20.13;;;14.40;74.50;;;;;;4929917;28;20110;-49
2022/03/25 10:36:10;;;;;;;41.85;20.58;;;14.40;73.50;;;;;;4928184;29;20051;-51
2022/03/25 10:38:54;;;;;;;38.25;21.45;;;14.60;72.60;;;;;;4932521;28;20066;-49
2022/03/25 10:41:22;;;;;;;36.05;20.30;;;14.70;72.20;;;;;;4929228;28;20467;-51
2022/03/25 10:44:05;;;;;;;33.15;19.65;;;14.80;71.70;;;;;;4930313;29;20035;-48
2022/03/25 10:46:36;;;;;;;34.28;19.70;;;14.90;71.70;;;;;;4926322;28;20784;-52
2022/03/25 10:49:07;;;;;;;34.85;19.58;;;15.00;71.00;;;;;;4914034;29;20040;-52
2022/03/25 10:51:39;;;;;;;32.58;18.98;;;15.20;70.30;;;;;;4929524;28;20152;-52
2022/03/25 10:54:08;;;;;;;31.92;19.30;;;15.30;69.00;;;;;;4928023;28;20059;-50
2022/03/25 10:56:58;;;;;;;31.85;20.77;;;15.40;70.10;;;;;;4929736;28;20055;-50
2022/03/25 10:59:24;;;;;;;41.95;20.80;;;15.60;69.60;;;;;;4931277;29;20040;-52
2022/03/25 11:01:52;;;;;;;35.33;21.88;;;15.80;69.10;;;;;;4931600;28;20046;-49
2022/03/25 11:04:18;;;;;;;32.75;19.77;;;15.90;68.10;;;;;;4929126;29;20150;-50
2022/03/25 11:06:47;;;;;;;40.13;20.52;;;16.00;65.50;;;;;;4928397;28;20098;-51
2022/03/25 11:09:14;;;;;;;33.78;21.02;;;16.10;65.90;;;;;;4930674;29;20449;-52
2022/03/25 11:11:46;;;;;;;33.95;20.50;;;16.20;66.00;;;;;;4927306;28;20071;-52
2022/03/25 11:14:12;;;;;;;35.60;20.38;;;16.40;65.10;;;;;;4932419;28;20046;-48
2022/03/25 11:16:56;;;;;;;34.50;20.95;;;16.50;65.30;;;;;;4931896;29;20549;-52
2022/03/25 11:19:23;;;;;;;35.05;20.48;;;16.70;65.60;;;;;;4932731;29;20513;-49
2022/03/25 11:21:50;;;;;;;33.72;19.38;;;16.80;64.10;;;;;;4926523;29;20119;-50
2022/03/25 11:24:32;;;;;;;33.97;19.48;;;16.90;63.50;;;;;;4940960;28;20110;-48
2022/03/25 11:27:02;;;;;;;37.15;17.75;;;17.00;62.60;;;;;;4934566;28;20549;-52
2022/03/25 11:29:31;;;;;;;29.52;17.48;;;17.10;62.20;;;;;;4937177;29;20828;-48
2022/03/25 11:32:14;;;;;;;28.45;18.20;;;17.20;61.50;;;;;;4938273;29;20089;-51
2022/03/25 11:35:07;;;;;;;31.52;17.13;;;17.30;60.80;;;;;;4936916;28;20035;-50
2022/03/25 11:37:34;;;;;;;30.02;16.27;;;17.40;60.10;;;;;;4934922;28;20402;-47
2022/03/25 11:40:20;;;;;;;27.83;15.02;;;17.50;59.60;;;;;;4936815;29;20082;-53
2022/03/25 11:42:51;;;;;;;25.02;14.43;;;17.60;58.40;;;;;;4938030;28;20074;-52
2022/03/25 11:45:24;;;;;;;24.15;13.55;;;17.70;58.30;;;;;;4933383;28;20067;-48
2022/03/25 11:47:59;;;;;;;25.42;14.10;;;17.80;57.10;;;;;;4934567;28;20039;-51
2022/03/25 11:50:40;;;;;;;23.90;13.73;;;17.80;54.80;;;;;;4913465;29;20148;-54
2022/03/25 11:53:12;;;;;;;24.73;12.82;;;17.90;55.60;;;;;;4932940;28;20043;-49
2022/03/25 11:55:55;;;;;;;26.10;12.55;;;18.00;55.60;;;;;;4931877;28;20171;-51
2022/03/25 11:58:22;;;;;;;20.42;13.00;;;18.00;55.10;;;;;;4931311;29;20047;-50
2022/03/25 12:00:51;;;;;;;25.48;14.23;;;18.10;55.20;;;;;;4933409;29;20077;-52
2022/03/25 12:03:17;;;;;;;23.45;14.32;;;18.20;54.20;;;;;;4932293;29;20047;-52
2022/03/25 12:06:01;;;;;;;22.60;13.07;;;18.20;54.20;;;;;;4930551;28;20139;-49
2022/03/25 12:08:31;;;;;;;22.55;14.25;;;18.30;54.30;;;;;;4933932;28;20074;-52
2022/03/25 12:10:59;;;;;;;27.15;13.02;;;18.50;54.70;;;;;;4932927;29;20061;-50
2022/03/25 12:13:51;;;;;;;20.95;12.57;;;18.70;54.20;;;;;;4931912;29;20071;-50
2022/03/25 12:16:51;;;;;;;27.45;17.83;;;18.70;53.30;;;;;;4933270;29;20130;-52
2022/03/25 12:19:26;;;;;;;32.67;21.38;;;18.80;54.30;;;;;;4887161;28;20821;-51
2022/03/25 12:22:17;;;;;;;33.72;22.35;;;18.80;54.50;;;;;;4930644;28;20053;-51
2022/03/25 12:24:43;;;;;;;38.15;23.15;;;18.70;54.60;;;;;;4927026;29;20043;-51
2022/03/25 12:27:09;;;;;;;31.95;21.42;;;18.70;54.70;;;;;;4930325;28;20526;-52
2022/03/25 12:29:51;;;;;;;34.70;21.38;;;18.70;54.80;;;;;;4929952;29;20048;-53
2022/03/25 12:32:18;;;;;;;33.97;19.58;;;18.80;54.90;;;;;;4930516;28;20085;-48
2022/03/25 12:34:56;;;;;;;31.02;19.63;;;18.80;54.50;;;;;;4930349;28;20047;-50
2022/03/25 12:37:26;;;;;;;33.78;21.63;;;18.90;53.80;;;;;;4931636;28;20046;-50
2022/03/25 12:39:52;;;;;;;37.50;22.58;;;19.00;53.30;;;;;;4930876;28;20051;-53
2022/03/25 12:42:18;;;;;;;38.08;22.67;;;19.10;53.10;;;;;;4929389;29;20058;-51
2022/03/25 12:44:53;;;;;;;36.08;21.15;;;19.20;52.30;;;;;;4934504;28;20071;-52
2022/03/25 12:47:32;;;;;;;33.15;21.35;;;19.20;50.70;;;;;;4930844;29;20055;-51